createdAt,value
2023-01-19T00:00:53.344Z,-5.90
2023-01-19T00:03:20.144Z,-6.00
2023-01-19T00:05:47.587Z,-5.90
2023-01-19T00:08:15.139Z,-5.90
2023-01-19T00:10:51.139Z,-6.00
2023-01-19T00:13:18.243Z,-6.10
2023-01-19T00:15:45.283Z,-6.10
2023-01-19T00:18:12.270Z,-6.10
2023-01-19T00:20:40.451Z,-6.10
2023-01-19T00:23:08.293Z,-6.10
2023-01-19T00:25:36.167Z,-6.20
2023-01-19T00:28:03.458Z,-6.30
2023-01-19T00:30:30.845Z,-6.50
2023-01-19T00:32:58.361Z,-6.60
2023-01-19T00:35:25.657Z,-6.50
2023-01-19T00:37:52.408Z,-6.40
2023-01-19T00:40:19.306Z,-6.40
2023-01-19T00:42:48.367Z,-6.40
2023-01-19T00:45:18.696Z,-6.50
2023-01-19T00:47:46.393Z,-6.60
2023-01-19T00:50:14.651Z,-6.80
2023-01-19T00:52:41.686Z,-6.90
2023-01-19T00:55:10.207Z,-7.00
2023-01-19T00:57:37.899Z,-7.00
2023-01-19T01:00:11.707Z,-7.00
2023-01-19T01:02:40.104Z,-6.90
2023-01-19T01:05:08.701Z,-6.80
2023-01-19T01:07:40.862Z,-6.90
2023-01-19T01:10:16.487Z,-6.80
2023-01-19T01:12:56.040Z,-6.80
2023-01-19T01:15:26.431Z,-6.90
2023-01-19T01:17:53.844Z,-7.10
2023-01-19T01:20:27.954Z,-7.20
2023-01-19T01:22:55.947Z,-7.10
2023-01-19T01:25:24.891Z,-7.30
2023-01-19T01:27:52.014Z,-7.50
2023-01-19T01:30:19.713Z,-7.60
2023-01-19T01:32:46.685Z,-7.50
2023-01-19T01:35:14.589Z,-7.60
2023-01-19T01:37:42.656Z,-7.60
2023-01-19T01:40:12.994Z,-7.30
2023-01-19T01:42:40.669Z,-7.30
2023-01-19T01:45:31.204Z,-7.50
2023-01-19T01:48:13.126Z,-7.70
2023-01-19T01:51:06.852Z,-7.80
2023-01-19T01:53:35.072Z,-7.90
2023-01-19T01:56:06.608Z,-7.90
2023-01-19T02:07:18.841Z,-7.80
2023-01-19T02:10:04.314Z,-7.90
2023-01-19T02:12:49.778Z,-8.00
2023-01-19T02:15:20.218Z,-8.10
2023-01-19T02:17:47.408Z,-8.00
2023-01-19T02:20:14.905Z,-8.00
2023-01-19T02:22:48.876Z,-8.00
2023-01-19T02:25:18.194Z,-8.10
2023-01-19T02:27:45.695Z,-8.20
2023-01-19T02:30:13.657Z,-8.20
2023-01-19T02:32:40.514Z,-8.30
2023-01-19T02:35:08.286Z,-8.30
2023-01-19T02:37:37.629Z,-8.30
2023-01-19T02:40:09.326Z,-8.20
2023-01-19T02:42:46.965Z,-8.00
2023-01-19T02:45:17.339Z,-7.70
2023-01-19T02:47:46.585Z,-7.80
2023-01-19T02:50:36.145Z,-7.90
2023-01-19T02:53:45.764Z,-7.70
2023-01-19T02:56:18.566Z,-7.80
2023-01-19T02:58:51.584Z,-8.00
2023-01-19T03:01:36.299Z,-8.10
2023-01-19T03:04:31.792Z,-8.20
2023-01-19T03:07:13.392Z,-8.20
2023-01-19T03:10:20.432Z,-8.20
2023-01-19T03:12:50.657Z,-8.20
2023-01-19T03:15:47.879Z,-8.20
2023-01-19T03:18:20.909Z,-8.20
2023-01-19T03:20:50.600Z,-8.30
2023-01-19T03:23:18.844Z,-8.30
2023-01-19T03:25:51.218Z,-8.20
2023-01-19T03:28:20.115Z,-8.00
2023-01-19T03:31:00.681Z,-7.70
2023-01-19T03:33:39.073Z,-7.50
2023-01-19T03:36:13.366Z,-7.50
2023-01-19T03:38:43.182Z,-7.60
2023-01-19T03:41:15.541Z,-7.60
2023-01-19T03:43:44.213Z,-7.80
2023-01-19T03:46:12.618Z,-7.80
2023-01-19T03:48:39.508Z,-7.70
2023-01-19T03:51:09.611Z,-7.60
2023-01-19T03:53:36.965Z,-7.80
2023-01-19T03:56:04.080Z,-8.00
2023-01-19T03:58:31.062Z,-8.10
2023-01-19T04:00:58.133Z,-8.10
2023-01-19T04:03:25.112Z,-7.90
2023-01-19T04:05:51.937Z,-7.60
2023-01-19T04:08:19.265Z,-7.40
2023-01-19T04:10:46.659Z,-7.40
2023-01-19T04:13:13.431Z,-6.90
2023-01-19T04:15:40.345Z,-7.30
2023-01-19T04:18:07.120Z,-7.40
2023-01-19T04:20:34.091Z,-7.40
2023-01-19T04:23:01.935Z,-7.40
2023-01-19T04:25:29.100Z,-7.60
2023-01-19T04:27:58.350Z,-7.70
2023-01-19T04:30:25.925Z,-7.70
2023-01-19T04:32:53.642Z,-7.70
2023-01-19T04:35:21.340Z,-7.50
2023-01-19T04:37:48.485Z,-7.40
2023-01-19T04:40:15.620Z,-7.40
2023-01-19T04:42:45.098Z,-7.50
2023-01-19T04:45:13.196Z,-7.50
2023-01-19T04:47:40.448Z,-7.50
2023-01-19T04:50:08.688Z,-7.50
2023-01-19T04:52:36.196Z,-7.50
2023-01-19T04:55:04.913Z,-7.50
2023-01-19T04:57:31.969Z,-7.50
2023-01-19T04:59:59.086Z,-7.50
2023-01-19T05:02:26.265Z,-7.60
2023-01-19T05:04:53.300Z,-7.40
2023-01-19T05:07:20.041Z,-7.40
2023-01-19T05:09:46.900Z,-7.40
2023-01-19T05:12:13.690Z,-7.70
2023-01-19T05:14:40.581Z,-7.70
2023-01-19T05:17:07.373Z,-7.70
2023-01-19T05:19:34.149Z,-7.60
2023-01-19T05:22:03.394Z,-7.60
2023-01-19T05:24:30.533Z,-7.60
2023-01-19T05:26:58.057Z,-7.60
2023-01-19T05:29:25.289Z,-7.60
2023-01-19T05:31:52.053Z,-7.60
2023-01-19T05:34:19.264Z,-7.70
2023-01-19T05:36:46.068Z,-7.70
2023-01-19T05:39:14.404Z,-7.70
2023-01-19T05:41:42.143Z,-7.60
2023-01-19T05:44:10.311Z,-7.60
2023-01-19T05:46:37.371Z,-7.70
2023-01-19T05:49:05.131Z,-7.80
2023-01-19T05:51:35.218Z,-7.90
2023-01-19T05:54:02.400Z,-8.00
2023-01-19T05:56:29.864Z,-7.90
2023-01-19T05:58:56.836Z,-7.90
2023-01-19T06:01:23.753Z,-6.90
2023-01-19T06:03:50.559Z,-7.60
2023-01-19T06:06:17.771Z,-7.50
2023-01-19T06:08:45.281Z,-7.60
2023-01-19T06:11:12.444Z,-7.60
2023-01-19T06:13:42.331Z,-7.70
2023-01-19T06:16:09.877Z,-7.70
2023-01-19T06:18:37.152Z,-7.80
2023-01-19T06:21:09.400Z,-7.90
2023-01-19T06:23:36.823Z,-8.00
2023-01-19T06:26:04.073Z,-8.20
2023-01-19T06:28:31.193Z,-8.30
2023-01-19T06:30:57.996Z,-5.40
2023-01-19T06:33:25.453Z,-7.00
2023-01-19T06:35:52.440Z,-6.70
2023-01-19T06:38:19.768Z,-6.50
2023-01-19T06:40:55.928Z,-6.70
2023-01-19T06:43:22.856Z,-7.10
2023-01-19T06:45:50.451Z,-7.40
2023-01-19T06:48:20.699Z,-7.80
2023-01-19T06:50:48.483Z,-8.00
2023-01-19T06:53:16.831Z,-8.20
2023-01-19T06:55:44.106Z,-8.20
2023-01-19T06:58:11.557Z,-8.20
2023-01-19T07:00:38.728Z,-8.30
2023-01-19T07:03:09.215Z,-8.40
2023-01-19T07:05:36.583Z,-8.40
2023-01-19T07:08:04.025Z,-8.30
2023-01-19T07:11:25.888Z,-8.10
2023-01-19T07:13:17.949Z,-7.90
2023-01-19T07:15:44.719Z,-7.90
2023-01-19T07:18:11.513Z,-7.80
2023-01-19T07:20:38.566Z,-7.70
2023-01-19T07:23:05.426Z,-7.60
2023-01-19T07:25:32.275Z,-7.50
2023-01-19T07:28:00.063Z,-7.50
2023-01-19T07:30:27.256Z,-7.50
2023-01-19T07:32:58.658Z,-7.70
2023-01-19T07:35:26.183Z,-7.80
2023-01-19T07:37:52.995Z,-7.70
2023-01-19T07:40:19.799Z,-7.40
2023-01-19T07:42:50.764Z,-7.30
2023-01-19T07:45:19.954Z,-7.20
2023-01-19T07:47:51.362Z,-7.00
2023-01-19T07:50:24.723Z,-6.80
2023-01-19T07:52:53.650Z,-6.70
2023-01-19T07:55:21.717Z,-6.50
2023-01-19T07:57:52.751Z,-6.00
2023-01-19T08:00:22.047Z,-5.40
2023-01-19T08:02:52.089Z,-4.80
2023-01-19T08:05:19.743Z,-4.30
2023-01-19T08:07:47.401Z,-4.00
2023-01-19T08:10:15.859Z,-3.90
2023-01-19T08:12:42.670Z,-3.50
2023-01-19T08:15:10.871Z,-3.10
2023-01-19T08:17:38.372Z,-2.80
2023-01-19T08:20:06.672Z,-2.80
2023-01-19T08:22:33.465Z,-2.80
2023-01-19T08:25:00.329Z,-2.70
2023-01-19T08:27:27.110Z,-2.20
2023-01-19T08:29:54.763Z,-2.50
2023-01-19T08:32:21.607Z,-2.90
2023-01-19T08:34:48.764Z,-3.40
2023-01-19T08:37:15.565Z,-3.60
2023-01-19T08:39:42.525Z,-3.80
2023-01-19T08:42:09.528Z,-3.80
2023-01-19T08:44:37.858Z,-4.00
2023-01-19T08:47:09.069Z,-3.90
2023-01-19T08:49:36.400Z,-3.90
2023-01-19T08:52:03.957Z,-4.00
2023-01-19T08:54:30.685Z,-4.10
2023-01-19T08:56:57.705Z,-4.10
2023-01-19T08:59:24.543Z,-4.00
2023-01-19T09:01:51.475Z,-4.00
2023-01-19T09:04:18.400Z,-4.00
2023-01-19T09:06:45.278Z,-4.00
2023-01-19T09:09:12.200Z,-3.90
2023-01-19T09:11:39.837Z,-3.80
2023-01-19T09:14:06.832Z,-3.70
2023-01-19T09:16:34.407Z,-3.70
2023-01-19T09:19:01.151Z,-3.70
2023-01-19T09:21:28.966Z,-3.60
2023-01-19T09:23:56.269Z,-3.60
2023-01-19T09:26:23.742Z,-3.50
2023-01-19T09:28:50.899Z,-3.30
2023-01-19T09:31:18.142Z,-3.30
2023-01-19T09:33:45.043Z,-3.10
2023-01-19T09:36:12.056Z,-3.20
2023-01-19T09:38:38.884Z,-3.20
2023-01-19T09:41:16.882Z,-3.40
2023-01-19T09:43:48.886Z,-3.30
2023-01-19T09:46:36.601Z,-3.20
2023-01-19T09:49:11.960Z,-3.20
2023-01-19T09:51:41.694Z,-2.90
2023-01-19T09:54:15.890Z,-2.70
2023-01-19T09:56:44.628Z,-2.70
2023-01-19T09:59:21.260Z,-2.70
2023-01-19T10:02:13.131Z,-2.60
2023-01-19T10:04:41.432Z,-2.40
2023-01-19T10:07:39.000Z,-2.20
2023-01-19T10:10:33.216Z,-2.10
2023-01-19T10:13:14.044Z,-2.10
2023-01-19T10:15:58.546Z,-1.90
2023-01-19T10:18:43.241Z,-1.40
2023-01-19T10:21:33.448Z,-1.30
2023-01-19T10:24:30.193Z,-1.60
2023-01-19T10:26:57.425Z,-1.10
2023-01-19T10:29:37.303Z,-1.10
2023-01-19T10:32:12.549Z,-1.00
2023-01-19T10:34:40.485Z,-0.90
2023-01-19T10:37:36.974Z,-0.90
2023-01-19T10:40:09.989Z,-1.00
2023-01-19T10:42:38.704Z,-1.10
2023-01-19T10:45:16.501Z,-1.30
2023-01-19T10:47:45.805Z,-1.60
2023-01-19T10:50:33.012Z,-1.60
2023-01-19T10:53:03.686Z,-1.30
2023-01-19T10:55:35.559Z,-1.00
2023-01-19T10:58:02.327Z,-0.80
2023-01-19T11:00:31.005Z,-0.60
2023-01-19T11:02:57.954Z,-0.10
2023-01-19T11:05:27.307Z,0.30
2023-01-19T11:07:54.409Z,0.50
2023-01-19T11:10:24.709Z,1.00
2023-01-19T11:13:15.744Z,1.70
2023-01-19T11:15:57.438Z,1.80
2023-01-19T11:18:24.240Z,2.10
2023-01-19T11:20:56.325Z,1.40
2023-01-19T11:23:33.915Z,0.80
2023-01-19T11:26:05.167Z,0.40
2023-01-19T11:28:35.549Z,0.20
2023-01-19T11:31:17.134Z,0.10
2023-01-19T11:33:48.033Z,-0.10
2023-01-19T11:36:25.075Z,-0.40
2023-01-19T11:38:54.217Z,-0.50
2023-01-19T11:41:28.393Z,-0.60
2023-01-19T11:44:20.643Z,-0.30
2023-01-19T11:46:53.371Z,0.00
2023-01-19T11:49:59.050Z,0.00
2023-01-19T11:52:44.506Z,0.30
2023-01-19T11:55:21.857Z,0.30
2023-01-19T11:57:53.471Z,0.30
2023-01-19T12:00:43.471Z,0.50
2023-01-19T12:03:35.654Z,0.30
2023-01-19T12:06:05.908Z,0.20
2023-01-19T12:08:39.616Z,0.00
2023-01-19T12:11:11.287Z,-0.30
2023-01-19T12:13:41.420Z,-0.20
2023-01-19T12:16:13.416Z,-0.30
2023-01-19T12:18:45.329Z,-0.40
2023-01-19T12:21:12.200Z,-0.50
2023-01-19T12:24:01.285Z,-0.40
2023-01-19T12:26:30.918Z,-0.40
2023-01-19T12:29:03.523Z,-0.50
2023-01-19T12:31:30.522Z,-0.50
2023-01-19T12:34:24.940Z,-0.60
2023-01-19T12:37:06.709Z,-0.60
2023-01-19T12:39:35.484Z,-0.60
2023-01-19T12:42:13.041Z,-0.60
2023-01-19T12:44:41.693Z,-0.50
2023-01-19T12:47:12.998Z,-0.70
2023-01-19T12:49:46.123Z,-0.60
2023-01-19T12:52:34.051Z,-0.60
2023-01-19T12:55:02.626Z,-0.60
2023-01-19T12:57:51.592Z,-0.60
2023-01-19T13:00:24.608Z,-0.60
2023-01-19T13:02:59.267Z,-0.60
2023-01-19T13:05:33.229Z,-0.70
2023-01-19T13:08:04.800Z,-0.80
2023-01-19T13:10:59.683Z,-0.70
2023-01-19T13:13:26.451Z,-0.70
2023-01-19T13:15:55.909Z,-0.80
2023-01-19T13:18:39.055Z,-0.90
2023-01-19T13:21:08.771Z,-1.00
2023-01-19T13:23:47.534Z,-0.90
2023-01-19T13:26:17.097Z,-0.90
2023-01-19T13:28:51.444Z,-0.90
2023-01-19T13:31:19.153Z,-1.00
2023-01-19T13:33:59.025Z,-1.10
2023-01-19T13:36:36.892Z,-1.20
2023-01-19T13:39:07.303Z,-1.20
2023-01-19T13:41:40.247Z,-1.20
2023-01-19T13:44:28.017Z,-1.30
2023-01-19T13:46:56.529Z,-1.40
2023-01-19T13:49:33.000Z,-1.40
2023-01-19T13:52:22.254Z,-1.50
2023-01-19T13:55:02.995Z,-1.50
2023-01-19T13:57:32.980Z,-1.50
2023-01-19T14:00:12.304Z,-1.50
2023-01-19T14:02:40.634Z,-1.60
2023-01-19T14:05:26.081Z,-1.60
2023-01-19T14:08:13.899Z,-1.50
2023-01-19T14:10:42.443Z,-1.50
2023-01-19T14:13:16.200Z,-1.50
2023-01-19T14:15:44.050Z,-1.60
2023-01-19T14:18:16.890Z,-1.50
2023-01-19T14:20:56.841Z,-1.60
2023-01-19T14:23:37.814Z,-1.50
2023-01-19T14:26:05.100Z,-1.50
2023-01-19T14:28:44.147Z,-1.50
2023-01-19T14:31:23.992Z,-1.50
2023-01-19T14:33:53.206Z,-1.40
2023-01-19T14:36:22.718Z,-1.50
2023-01-19T14:38:51.564Z,-1.50
2023-01-19T14:41:35.259Z,-1.60
2023-01-19T14:44:03.221Z,-1.60
2023-01-19T14:46:30.246Z,-1.60
2023-01-19T14:49:02.732Z,-1.60
2023-01-19T14:51:30.556Z,-1.60
2023-01-19T14:53:59.732Z,-1.60
2023-01-19T14:56:32.083Z,-1.60
2023-01-19T14:59:00.700Z,-1.60
2023-01-19T15:01:28.935Z,-1.60
2023-01-19T15:03:58.912Z,-1.60
2023-01-19T15:06:26.797Z,-1.60
2023-01-19T15:08:54.394Z,-1.60
2023-01-19T15:11:25.919Z,-1.70
2023-01-19T15:13:52.978Z,-1.70
2023-01-19T15:16:22.637Z,-1.70
2023-01-19T15:18:49.441Z,-1.70
2023-01-19T15:21:20.079Z,-1.70
2023-01-19T15:23:47.625Z,-1.60
2023-01-19T15:26:17.832Z,-1.70
2023-01-19T15:28:45.919Z,-1.70
2023-01-19T15:31:18.460Z,-1.80
2023-01-19T15:33:45.681Z,-1.80
2023-01-19T15:36:18.734Z,-1.80
2023-01-19T15:38:46.815Z,-1.80
2023-01-19T15:41:24.709Z,-1.80
2023-01-19T15:43:51.999Z,-1.90
2023-01-19T15:46:20.877Z,-1.90
2023-01-19T15:48:49.081Z,-1.90
2023-01-19T15:51:18.240Z,-1.90
2023-01-19T15:53:45.438Z,-2.00
2023-01-19T15:56:21.897Z,-2.00
2023-01-19T15:58:49.055Z,-2.00
2023-01-19T16:01:31.643Z,-2.00
2023-01-19T16:04:04.372Z,-2.00
2023-01-19T16:06:31.831Z,-2.00
2023-01-19T16:09:02.595Z,-2.00
2023-01-19T16:11:34.394Z,-2.00
2023-01-19T16:14:01.739Z,-2.00
2023-01-19T16:16:29.142Z,-2.10
2023-01-19T16:18:56.625Z,-2.10
2023-01-19T16:21:24.352Z,-2.10
2023-01-19T16:23:51.886Z,-2.20
2023-01-19T16:26:32.167Z,-2.20
2023-01-19T16:29:01.538Z,-2.20
2023-01-19T16:31:29.364Z,-2.20
2023-01-19T16:33:56.462Z,-2.20
2023-01-19T16:36:31.987Z,-2.20
2023-01-19T16:39:00.737Z,-2.30
2023-01-19T16:41:28.682Z,-2.30
2023-01-19T16:43:57.734Z,-2.40
2023-01-19T16:46:50.817Z,-2.40
2023-01-19T16:49:28.405Z,-2.50
2023-01-19T16:51:58.310Z,-2.60
2023-01-19T16:54:26.228Z,-2.70
2023-01-19T16:56:54.338Z,-2.70
2023-01-19T16:59:22.356Z,-2.70
2023-01-19T17:01:52.806Z,-2.70
2023-01-19T17:04:22.102Z,-2.70
2023-01-19T17:06:49.892Z,-2.80
2023-01-19T17:09:17.403Z,-2.80
2023-01-19T17:11:44.667Z,-2.80
2023-01-19T17:14:20.306Z,-2.70
2023-01-19T17:16:48.145Z,-2.90
2023-01-19T17:19:17.730Z,-2.90
2023-01-19T17:21:46.347Z,-2.90
2023-01-19T17:24:13.184Z,-3.00
2023-01-19T17:26:40.097Z,-2.90
2023-01-19T17:29:09.617Z,-3.00
2023-01-19T17:31:37.483Z,-3.00
2023-01-19T17:34:04.918Z,-2.90
2023-01-19T17:36:32.935Z,-2.80
2023-01-19T17:39:04.749Z,-2.70
2023-01-19T17:41:33.343Z,-2.70
2023-01-19T17:44:01.369Z,-2.80
2023-01-19T17:46:29.381Z,-2.70
2023-01-19T17:48:58.668Z,-2.80
2023-01-19T17:51:26.578Z,-2.70
2023-01-19T17:53:54.507Z,-2.80
2023-01-19T17:56:25.838Z,-2.80
2023-01-19T17:58:52.666Z,-2.90
2023-01-19T18:01:25.147Z,-2.80
2023-01-19T18:03:52.951Z,-2.80
2023-01-19T18:06:20.568Z,-2.80
2023-01-19T18:08:49.542Z,-2.90
2023-01-19T18:11:19.590Z,-3.00
2023-01-19T18:13:48.329Z,-3.00
2023-01-19T18:16:19.272Z,-3.00
2023-01-19T18:18:46.123Z,-3.00
2023-01-19T18:21:14.657Z,-3.00
2023-01-19T18:23:43.475Z,-3.10
2023-01-19T18:26:18.721Z,-3.10
2023-01-19T18:28:45.873Z,-3.10
2023-01-19T18:31:15.012Z,-3.00
2023-01-19T18:33:42.865Z,-3.00
2023-01-19T18:36:10.507Z,-3.10
2023-01-19T18:38:39.099Z,-3.10
2023-01-19T18:41:10.108Z,-3.00
2023-01-19T18:43:37.157Z,-3.10
2023-01-19T18:46:05.243Z,-3.10
2023-01-19T18:48:32.240Z,-3.20
2023-01-19T18:51:03.406Z,-3.20
2023-01-19T18:53:31.961Z,-3.20
2023-01-19T18:56:02.036Z,-3.20
2023-01-19T18:58:31.536Z,-3.20
2023-01-19T19:01:00.050Z,-3.20
2023-01-19T19:03:27.364Z,-3.30
2023-01-19T19:05:54.341Z,-3.30
2023-01-19T19:08:21.981Z,-3.40
2023-01-19T19:10:48.755Z,-3.40
2023-01-19T19:13:16.985Z,-3.40
2023-01-19T19:15:46.769Z,-3.40
2023-01-19T19:18:14.089Z,-3.40
2023-01-19T19:20:45.398Z,-3.40
2023-01-19T19:23:12.190Z,-3.40
2023-01-19T19:25:39.009Z,-3.40
2023-01-19T19:28:06.473Z,-3.40
2023-01-19T19:30:34.604Z,-3.40
2023-01-19T19:33:01.582Z,-3.30
2023-01-19T19:35:28.590Z,-3.40
2023-01-19T19:37:57.577Z,-3.30
2023-01-19T19:40:26.331Z,-3.30
2023-01-19T19:42:53.409Z,-3.30
2023-01-19T19:45:20.276Z,-3.30
2023-01-19T19:47:47.326Z,-3.20
2023-01-19T19:50:14.677Z,-3.20
2023-01-19T19:52:41.982Z,-3.20
2023-01-19T19:55:09.979Z,-3.20
2023-01-19T19:57:37.066Z,-3.20
2023-01-19T20:00:05.242Z,-3.20
2023-01-19T20:02:36.782Z,-3.20
2023-01-19T20:05:04.686Z,-3.20
2023-01-19T20:07:31.790Z,-3.30
2023-01-19T20:09:58.897Z,-3.20
2023-01-19T20:12:25.823Z,-3.20
2023-01-19T20:14:52.738Z,-3.20
2023-01-19T20:17:20.721Z,-3.20
2023-01-19T20:19:48.992Z,-3.20
2023-01-19T20:22:16.197Z,-3.20
2023-01-19T20:24:42.973Z,-3.20
2023-01-19T20:27:10.008Z,-3.20
2023-01-19T20:29:36.856Z,-3.30
2023-01-19T20:32:03.878Z,-3.30
2023-01-19T20:34:33.738Z,-3.30
2023-01-19T20:37:01.779Z,-3.30
2023-01-19T20:39:33.104Z,-3.30
2023-01-19T20:42:01.384Z,-3.30
2023-01-19T20:44:28.590Z,-3.30
2023-01-19T20:46:56.013Z,-3.30
2023-01-19T20:49:23.313Z,-3.30
2023-01-19T20:51:51.879Z,-3.30
2023-01-19T20:54:20.622Z,-3.30
2023-01-19T20:56:47.956Z,-3.30
2023-01-19T20:59:14.850Z,-3.30
2023-01-19T21:01:42.468Z,-3.30
2023-01-19T21:04:10.088Z,-3.30
2023-01-19T21:06:37.519Z,-3.30
2023-01-19T21:09:04.914Z,-3.30
2023-01-19T21:11:31.943Z,-3.30
2023-01-19T21:13:59.199Z,-3.20
2023-01-19T21:16:28.833Z,-3.30
2023-01-19T21:18:56.024Z,-3.30
2023-01-19T21:21:30.860Z,-3.30
2023-01-19T21:23:59.932Z,-3.30
2023-01-19T21:26:29.631Z,-3.30
2023-01-19T21:28:58.162Z,-3.30
2023-01-19T21:31:27.542Z,-3.30
2023-01-19T21:33:55.831Z,-3.30
2023-01-19T21:36:23.288Z,-3.30
2023-01-19T21:38:51.492Z,-3.30
2023-01-19T21:41:18.665Z,-3.30
2023-01-19T21:43:46.147Z,-3.40
2023-01-19T21:46:17.913Z,-3.40
2023-01-19T21:48:45.813Z,-3.40
2023-01-19T21:51:13.709Z,-3.40
2023-01-19T21:53:41.106Z,-3.40
2023-01-19T21:56:09.712Z,-3.40
2023-01-19T21:58:36.889Z,-3.40
2023-01-19T22:01:07.309Z,-3.40
2023-01-19T22:03:34.338Z,-3.30
2023-01-19T22:06:06.477Z,-3.20
2023-01-19T22:08:33.895Z,-3.20
2023-01-19T22:11:05.857Z,-3.30
2023-01-19T22:13:33.818Z,-3.30
2023-01-19T22:16:08.781Z,-3.40
2023-01-19T22:18:39.198Z,-3.40
2023-01-19T22:21:35.882Z,-3.40
2023-01-19T22:24:04.564Z,-3.40
2023-01-19T22:26:34.059Z,-3.50
2023-01-19T22:29:02.228Z,-3.50
2023-01-19T22:31:30.419Z,-3.50
2023-01-19T22:33:57.961Z,-3.40
2023-01-19T22:36:30.520Z,-3.40
2023-01-19T22:38:58.799Z,-3.40
2023-01-19T22:41:31.192Z,-3.20
2023-01-19T22:44:00.142Z,-3.20
2023-01-19T22:46:30.620Z,-3.20
2023-01-19T22:48:58.054Z,-3.10
2023-01-19T22:51:26.197Z,-3.10
2023-01-19T22:53:52.992Z,-3.10
2023-01-19T22:56:23.892Z,-3.00
2023-01-19T22:58:51.405Z,-3.20
2023-01-19T23:01:23.990Z,-3.20
2023-01-19T23:03:52.264Z,-3.20
2023-01-19T23:06:22.169Z,-3.20
2023-01-19T23:08:49.287Z,-3.20
2023-01-19T23:11:20.738Z,-3.30
2023-01-19T23:13:48.141Z,-3.30
2023-01-19T23:16:15.163Z,-3.30
2023-01-19T23:18:42.971Z,-3.20
2023-01-19T23:21:18.470Z,-3.20
2023-01-19T23:23:46.419Z,-3.20
2023-01-19T23:26:18.781Z,-3.20
2023-01-19T23:28:46.849Z,-3.20
2023-01-19T23:31:25.848Z,-3.20
2023-01-19T23:33:58.186Z,-3.20
2023-01-19T23:36:26.870Z,-3.30
2023-01-19T23:38:56.440Z,-3.30
2023-01-19T23:41:24.383Z,-3.20
2023-01-19T23:43:51.857Z,-3.20
2023-01-19T23:46:19.567Z,-3.30
2023-01-19T23:48:47.027Z,-3.30
2023-01-19T23:51:22.361Z,-3.30
2023-01-19T23:53:50.093Z,-3.30
2023-01-19T23:56:28.675Z,-3.30
2023-01-19T23:58:58.019Z,-3.30
